x

Dunkirk, Ny (dbln6) Weather Station

3:00am - Sat 30th Aug 2014 All times are CDT. -5 hours from GMT.

  • Wind
    14mph, 20mph gusts
  • Air Temp 66°f
  • Sea Pressure 1017.9mb
  • Dunkirk, Ny
  • Dunkirk, Ny

More Historic Weather Station data

Upgrade to MSW Pro to gain access to the past 30 days of data for over 8000 Wavebouys and Weather Stations around the globe.

Join Pro

Comparision Forecast

View Surf forecast
   
Sat 08/30 3:00am 14 20 mph 1017.9mb 66f
2:00am 11 16 mph 1018.3mb 66f
1:00am 11 17 mph 1018.8mb 67f
12:00am 10 14 mph 1019mb 68f
Fri 08/29 11:00pm 10 16 mph 1019mb 69f
10:00pm 7 10 mph 1018.9mb 67f
9:00pm 8 9 mph 1019.4mb 67f
8:00pm 5 6 mph 1019.4mb 69f
7:00pm 8 9 mph 1019.3mb 71f
6:00pm 7 9 mph 1019.4mb 71f
5:00pm 9 10 mph 1019.5mb 70f
4:00pm 8 10 mph 1019.7mb 70f
3:00pm 10 13 mph 1020.2mb 69f
2:00pm 9 11 mph 1020.7mb 69f
1:00pm 9 10 mph 1021.3mb 68f
12:00pm 6 7 mph 1021.8mb 68f
11:00am 3 5 mph 1022.2mb 70f
10:00am 6 8 mph 1022.2mb 70f
9:00am 3 6 mph 1022.6mb 66f
8:00am 7 9 mph 1022.7mb 62f
7:00am 5 7 mph 1022.6mb 60f
6:00am 3 6 mph 1022mb 59f
5:00am 3
mph
1021.7mb 59f
4:00am 5
mph
1021mb 60f
3:00am 5 6 mph 1020.9mb 61f
2:00am 3 6 mph 1020.9mb 61f
1:00am 7 8 mph 1021.2mb 61f
12:00am 7 9 mph 1021.2mb 61f
Thu 08/28 11:00pm 7 10 mph 1020.9mb 60f
10:00pm 7 9 mph 1020.7mb 60f
9:00pm 6 8 mph 1020.7mb 61f
8:00pm 5 7 mph 1020.2mb 63f
7:00pm 8 11 mph 1019.4mb 67f
6:00pm 8 9 mph 1019.1mb 68f
5:00pm 9 10 mph 1019.3mb 68f
4:00pm 6 8 mph 1019.5mb 68f
3:00pm 6 8 mph 1019.5mb 67f
2:00pm 6 9 mph 1019.7mb 67f
1:00pm 5 8 mph 1020mb 66f
12:00pm 8 11 mph 1020mb 65f
11:00am 10 15 mph 1020.1mb 64f
10:00am 15 17 mph 1020.1mb 63f
9:00am 11 13 mph 1020.1mb 62f
8:00am 13 15 mph 1019.7mb 62f
7:00am 10 14 mph 1019.1mb 63f
6:00am 11 14 mph 1018.6mb 61f
5:00am 11 14 mph 1018.2mb 61f
4:00am 9 11 mph 1017.8mb 62f
3:00am 13 16 mph 1017.6mb 63f
2:00am 13 16 mph 1017.7mb 63f
1:00am 14 16 mph 1018mb 64f
12:00am 16 20 mph 1018.3mb 65f
Wed 08/27 11:00pm 17 20 mph 1018.2mb 66f
10:00pm 17 21 mph 1017.9mb 67f
9:00pm 14 18 mph 1017.7mb 70f
8:00pm 17 20 mph 1017.2mb 71f
7:00pm 9 11 mph 1016.6mb 72f
6:00pm 11 17 mph 1016.6mb 73f
5:00pm 15 18 mph 1016.7mb 73f
4:00pm 16 20 mph 1016.8mb 71f
3:00pm 11 15 mph 1017.2mb 72f
2:00pm 8 13 mph 1017.4mb 72f
1:00pm 9 13 mph 1017.9mb 72f
12:00pm 8 10 mph 1018.2mb 71f
11:00am 9 11 mph 1018.1mb 71f
10:00am 3 5 mph 1018.3mb 73f
9:00am  -  1 mph 1018.3mb 71f
8:00am 5 6 mph 1018.1mb 70f
7:00am 11 13 mph 1017.9mb 71f
6:00am 9 10 mph 1017.6mb 71f
5:00am 8 10 mph 1017.5mb 72f
4:00am 13 16 mph 1016.9mb 72f
3:00am 17 24 mph 1016.4mb 72f
2:00am 15 18 mph 1016.6mb 73f
1:00am 15 17 mph 1016.6mb 74f
12:00am 8 10 mph 1016.2mb 76f
Tue 08/26 11:00pm 2 7 mph 1016mb 76f
10:00pm 2 3 mph 1015.9mb 76f
9:00pm 5 9 mph 1016.7mb 77f
8:00pm 7 10 mph 1016.7mb 77f
7:00pm 8 10 mph 1017.2mb 77f
6:00pm 9 13 mph 1017.2mb 77f
5:00pm 7 8 mph 1017.3mb 80f
4:00pm 9 11 mph 1017.4mb 78f
3:00pm 6 7 mph 1017.7mb 78f
2:00pm 8 9 mph 1018mb 77f
1:00pm 10 11 mph 1018.9mb 77f
12:00pm 11 13 mph 1019.4mb 76f
11:00am 11 15 mph 1019.9mb 80f
10:00am 6 9 mph 1020.1mb 79f